createdAt,value
2023-01-06T00:00:02.996Z,5.4
2023-01-06T00:20:03.073Z,5.1
2023-01-06T00:40:02.741Z,4.6
2023-01-06T01:00:02.369Z,4.6
2023-01-06T01:20:02.588Z,4.5
2023-01-06T01:40:03.387Z,4.5
2023-01-06T02:00:03.041Z,4.5
2023-01-06T02:20:03.256Z,4.5
2023-01-06T02:40:02.691Z,4.4
2023-01-06T03:00:02.476Z,4.4
2023-01-06T03:20:02.522Z,4.4
2023-01-06T03:40:03.055Z,4.5
2023-01-06T04:00:02.658Z,4.5
2023-01-06T04:20:02.659Z,4.4
2023-01-06T04:40:02.284Z,4.5
2023-01-06T05:00:02.959Z,4.6
2023-01-06T05:20:03.032Z,4.5
2023-01-06T05:40:03.719Z,4.6
2023-01-06T06:00:02.296Z,4.7
2023-01-06T06:20:03.180Z,4.7
2023-01-06T06:40:02.891Z,4.8
2023-01-06T07:00:02.573Z,4.8
2023-01-06T07:20:02.704Z,4.9
2023-01-06T07:40:02.404Z,5
2023-01-06T08:00:02.897Z,5
2023-01-06T08:20:03.173Z,5
2023-01-06T08:40:03.018Z,5.2
2023-01-06T09:00:02.914Z,5.4
2023-01-06T09:20:03.101Z,5.5
2023-01-06T09:40:02.790Z,5.8
2023-01-06T10:00:03.005Z,6
2023-01-06T10:20:03.465Z,6.2
2023-01-06T10:40:03.336Z,6.5
2023-01-06T11:00:03.183Z,6.7
2023-01-06T11:20:03.177Z,7
2023-01-06T11:40:05.423Z,7.3
2023-01-06T12:00:04.033Z,7.7
2023-01-06T12:20:02.612Z,7.9
2023-01-06T12:40:04.325Z,8.1
2023-01-06T13:00:03.404Z,8.2
2023-01-06T13:20:02.969Z,8.6
2023-01-06T13:40:03.818Z,8.8
2023-01-06T14:00:03.398Z,9
2023-01-06T14:20:04.115Z,9.2
2023-01-06T14:40:03.802Z,9.4
2023-01-06T15:00:03.854Z,9.6
2023-01-06T15:20:04.548Z,9.6
2023-01-06T15:40:03.493Z,9.6
2023-01-06T16:00:04.493Z,9.5
2023-01-06T16:20:03.663Z,9.3
2023-01-06T16:40:02.731Z,9.1
2023-01-06T17:00:04.158Z,9.1
2023-01-06T17:20:04.170Z,9.2
2023-01-06T17:40:04.316Z,9
2023-01-06T18:00:04.164Z,8.9
2023-01-06T18:20:03.643Z,8.8
2023-01-06T18:40:03.852Z,8.8
2023-01-06T19:00:04.167Z,8.6
2023-01-06T19:20:03.078Z,8.5
2023-01-06T19:40:04.215Z,8.4
2023-01-06T20:00:03.537Z,8.2
2023-01-06T20:20:03.055Z,8
2023-01-06T20:40:03.883Z,7.8
2023-01-06T21:00:03.285Z,7.7
2023-01-06T21:20:04.223Z,7.4
2023-01-06T21:40:03.533Z,7.3
2023-01-06T22:00:04.312Z,7
2023-01-06T22:20:02.255Z,6.8
2023-01-06T22:40:02.883Z,6.8
2023-01-06T23:00:02.684Z,6.7
2023-01-06T23:20:02.839Z,6.6
2023-01-06T23:40:02.596Z,6.7
